sensor_id;sensor_type;location;lat;lon;timestamp;P1;durP1;ratioP1;P2;durP2;ratioP2
39612;SDS011;25303;48.896;13.342;2024-03-07T00:07:20;19.63;;;9.25;;
39612;SDS011;25303;48.896;13.342;2024-03-07T00:17:25;21.42;;;10.30;;
39612;SDS011;25303;48.896;13.342;2024-03-07T00:27:28;21.60;;;9.40;;
39612;SDS011;25303;48.896;13.342;2024-03-07T00:37:32;26.23;;;11.23;;
39612;SDS011;25303;48.896;13.342;2024-03-07T00:47:35;25.75;;;10.77;;
39612;SDS011;25303;48.896;13.342;2024-03-07T00:57:41;30.40;;;12.48;;
39612;SDS011;25303;48.896;13.342;2024-03-07T01:07:44;36.08;;;14.15;;
39612;SDS011;25303;48.896;13.342;2024-03-07T01:17:49;34.75;;;13.77;;
39612;SDS011;25303;48.896;13.342;2024-03-07T01:27:52;27.10;;;11.60;;
39612;SDS011;25303;48.896;13.342;2024-03-07T01:37:58;26.35;;;11.15;;
39612;SDS011;25303;48.896;13.342;2024-03-07T01:48:01;22.80;;;10.27;;
39612;SDS011;25303;48.896;13.342;2024-03-07T01:58:07;19.05;;;7.97;;
39612;SDS011;25303;48.896;13.342;2024-03-07T02:08:12;19.90;;;8.93;;
39612;SDS011;25303;48.896;13.342;2024-03-07T02:18:17;14.85;;;6.28;;
39612;SDS011;25303;48.896;13.342;2024-03-07T02:28:23;18.77;;;7.38;;
39612;SDS011;25303;48.896;13.342;2024-03-07T02:38:26;20.92;;;7.90;;
39612;SDS011;25303;48.896;13.342;2024-03-07T02:48:31;20.58;;;9.15;;
39612;SDS011;25303;48.896;13.342;2024-03-07T02:58:35;21.17;;;8.50;;
39612;SDS011;25303;48.896;13.342;2024-03-07T03:08:40;27.30;;;10.23;;
39612;SDS011;25303;48.896;13.342;2024-03-07T03:18:43;16.35;;;6.65;;
39612;SDS011;25303;48.896;13.342;2024-03-07T03:28:48;12.57;;;5.90;;
39612;SDS011;25303;48.896;13.342;2024-03-07T03:38:52;19.90;;;9.02;;
39612;SDS011;25303;48.896;13.342;2024-03-07T03:48:56;13.20;;;6.13;;
39612;SDS011;25303;48.896;13.342;2024-03-07T03:58:59;11.82;;;4.82;;
39612;SDS011;25303;48.896;13.342;2024-03-07T04:09:04;11.43;;;4.88;;
39612;SDS011;25303;48.896;13.342;2024-03-07T04:19:07;13.23;;;6.07;;
39612;SDS011;25303;48.896;13.342;2024-03-07T04:29:12;13.05;;;5.78;;
39612;SDS011;25303;48.896;13.342;2024-03-07T04:39:15;7.53;;;3.55;;
39612;SDS011;25303;48.896;13.342;2024-03-07T04:49:28;5.68;;;2.63;;
39612;SDS011;25303;48.896;13.342;2024-03-07T04:59:32;7.78;;;4.05;;
39612;SDS011;25303;48.896;13.342;2024-03-07T05:09:37;6.30;;;2.90;;
39612;SDS011;25303;48.896;13.342;2024-03-07T05:19:40;6.00;;;2.92;;
39612;SDS011;25303;48.896;13.342;2024-03-07T05:29:44;8.35;;;4.05;;
39612;SDS011;25303;48.896;13.342;2024-03-07T05:39:47;7.38;;;3.55;;
39612;SDS011;25303;48.896;13.342;2024-03-07T05:49:52;8.23;;;4.05;;
39612;SDS011;25303;48.896;13.342;2024-03-07T05:59:55;8.90;;;4.90;;
39612;SDS011;25303;48.896;13.342;2024-03-07T06:10:00;10.52;;;5.10;;
39612;SDS011;25303;48.896;13.342;2024-03-07T06:20:03;6.45;;;3.50;;
39612;SDS011;25303;48.896;13.342;2024-03-07T06:30:11;16.20;;;7.20;;
39612;SDS011;25303;48.896;13.342;2024-03-07T06:40:15;10.40;;;5.00;;
39612;SDS011;25303;48.896;13.342;2024-03-07T06:50:24;10.83;;;5.33;;
39612;SDS011;25303;48.896;13.342;2024-03-07T07:00:46;13.73;;;6.47;;
39612;SDS011;25303;48.896;13.342;2024-03-07T07:10:49;14.52;;;5.93;;
39612;SDS011;25303;48.896;13.342;2024-03-07T07:20:54;13.05;;;6.03;;
39612;SDS011;25303;48.896;13.342;2024-03-07T07:30:58;10.70;;;5.40;;
39612;SDS011;25303;48.896;13.342;2024-03-07T07:41:02;13.68;;;6.10;;
39612;SDS011;25303;48.896;13.342;2024-03-07T07:51:07;11.40;;;4.93;;
39612;SDS011;25303;48.896;13.342;2024-03-07T08:01:11;12.20;;;6.10;;
39612;SDS011;25303;48.896;13.342;2024-03-07T08:11:16;13.05;;;6.57;;
39612;SDS011;25303;48.896;13.342;2024-03-07T08:21:20;9.90;;;4.82;;
39612;SDS011;25303;48.896;13.342;2024-03-07T08:31:25;12.13;;;5.25;;
39612;SDS011;25303;48.896;13.342;2024-03-07T08:41:30;16.40;;;7.60;;
39612;SDS011;25303;48.896;13.342;2024-03-07T08:51:38;13.23;;;6.25;;
39612;SDS011;25303;48.896;13.342;2024-03-07T09:01:42;12.95;;;6.72;;
39612;SDS011;25303;48.896;13.342;2024-03-07T09:11:46;11.02;;;5.20;;
39612;SDS011;25303;48.896;13.342;2024-03-07T09:21:51;15.60;;;7.20;;
39612;SDS011;25303;48.896;13.342;2024-03-07T09:31:54;50.65;;;23.10;;
39612;SDS011;25303;48.896;13.342;2024-03-07T09:42:00;18.08;;;9.02;;
39612;SDS011;25303;48.896;13.342;2024-03-07T09:52:03;13.43;;;5.65;;
39612;SDS011;25303;48.896;13.342;2024-03-07T10:02:11;10.75;;;5.40;;
39612;SDS011;25303;48.896;13.342;2024-03-07T10:12:18;9.60;;;4.50;;
39612;SDS011;25303;48.896;13.342;2024-03-07T10:22:22;10.27;;;5.00;;
39612;SDS011;25303;48.896;13.342;2024-03-07T10:32:25;10.32;;;4.85;;
39612;SDS011;25303;48.896;13.342;2024-03-07T10:42:30;13.73;;;6.78;;
39612;SDS011;25303;48.896;13.342;2024-03-07T10:52:38;12.27;;;5.65;;
39612;SDS011;25303;48.896;13.342;2024-03-07T11:02:46;15.65;;;6.75;;
39612;SDS011;25303;48.896;13.342;2024-03-07T11:12:50;12.25;;;5.20;;
39612;SDS011;25303;48.896;13.342;2024-03-07T11:22:56;13.23;;;5.88;;
39612;SDS011;25303;48.896;13.342;2024-03-07T11:33:01;12.23;;;6.18;;
39612;SDS011;25303;48.896;13.342;2024-03-07T11:43:07;11.90;;;5.63;;
39612;SDS011;25303;48.896;13.342;2024-03-07T11:53:10;7.90;;;3.95;;
39612;SDS011;25303;48.896;13.342;2024-03-07T12:03:14;7.50;;;3.60;;
39612;SDS011;25303;48.896;13.342;2024-03-07T12:13:20;5.10;;;3.20;;
39612;SDS011;25303;48.896;13.342;2024-03-07T12:23:25;5.28;;;2.90;;
39612;SDS011;25303;48.896;13.342;2024-03-07T12:33:29;4.53;;;2.67;;
39612;SDS011;25303;48.896;13.342;2024-03-07T12:43:36;4.82;;;2.70;;
39612;SDS011;25303;48.896;13.342;2024-03-07T12:53:39;4.95;;;2.85;;
39612;SDS011;25303;48.896;13.342;2024-03-07T13:03:45;7.10;;;3.60;;
39612;SDS011;25303;48.896;13.342;2024-03-07T13:13:50;6.43;;;3.72;;
39612;SDS011;25303;48.896;13.342;2024-03-07T13:23:55;7.53;;;3.80;;
39612;SDS011;25303;48.896;13.342;2024-03-07T13:34:00;9.43;;;5.05;;
39612;SDS011;25303;48.896;13.342;2024-03-07T13:44:05;12.18;;;6.10;;
39612;SDS011;25303;48.896;13.342;2024-03-07T13:54:08;14.30;;;6.88;;
39612;SDS011;25303;48.896;13.342;2024-03-07T14:04:36;13.68;;;6.93;;
39612;SDS011;25303;48.896;13.342;2024-03-07T14:15:04;12.85;;;6.53;;
39612;SDS011;25303;48.896;13.342;2024-03-07T14:36:16;12.32;;;5.88;;
39612;SDS011;25303;48.896;13.342;2024-03-07T14:46:21;12.60;;;6.25;;
39612;SDS011;25303;48.896;13.342;2024-03-07T14:56:24;11.30;;;5.82;;
39612;SDS011;25303;48.896;13.342;2024-03-07T15:06:29;16.38;;;6.90;;
39612;SDS011;25303;48.896;13.342;2024-03-07T15:16:33;16.45;;;7.55;;
39612;SDS011;25303;48.896;13.342;2024-03-07T15:26:40;16.77;;;7.75;;
39612;SDS011;25303;48.896;13.342;2024-03-07T15:36:48;15.43;;;7.78;;
39612;SDS011;25303;48.896;13.342;2024-03-07T15:47:03;16.65;;;8.07;;
39612;SDS011;25303;48.896;13.342;2024-03-07T15:57:08;15.63;;;7.32;;
39612;SDS011;25303;48.896;13.342;2024-03-07T16:07:13;15.38;;;7.43;;
39612;SDS011;25303;48.896;13.342;2024-03-07T16:17:16;17.58;;;7.80;;
39612;SDS011;25303;48.896;13.342;2024-03-07T16:27:22;20.92;;;8.75;;
39612;SDS011;25303;48.896;13.342;2024-03-07T16:37:25;13.95;;;6.28;;
39612;SDS011;25303;48.896;13.342;2024-03-07T16:47:29;17.77;;;7.72;;
39612;SDS011;25303;48.896;13.342;2024-03-07T16:57:33;16.98;;;8.18;;
39612;SDS011;25303;48.896;13.342;2024-03-07T17:07:40;13.20;;;5.78;;
39612;SDS011;25303;48.896;13.342;2024-03-07T17:17:44;14.70;;;6.97;;
39612;SDS011;25303;48.896;13.342;2024-03-07T17:27:50;13.27;;;5.25;;
39612;SDS011;25303;48.896;13.342;2024-03-07T17:37:55;14.30;;;6.25;;
39612;SDS011;25303;48.896;13.342;2024-03-07T17:48:00;17.05;;;6.30;;
39612;SDS011;25303;48.896;13.342;2024-03-07T17:58:04;14.55;;;5.97;;
39612;SDS011;25303;48.896;13.342;2024-03-07T18:08:11;22.58;;;9.60;;
39612;SDS011;25303;48.896;13.342;2024-03-07T18:18:21;20.08;;;8.88;;
39612;SDS011;25303;48.896;13.342;2024-03-07T18:28:28;15.13;;;6.00;;
39612;SDS011;25303;48.896;13.342;2024-03-07T18:38:31;17.10;;;7.82;;
39612;SDS011;25303;48.896;13.342;2024-03-07T18:48:35;15.15;;;7.05;;
39612;SDS011;25303;48.896;13.342;2024-03-07T18:58:39;19.58;;;8.15;;
39612;SDS011;25303;48.896;13.342;2024-03-07T19:08:48;13.97;;;5.63;;
39612;SDS011;25303;48.896;13.342;2024-03-07T19:18:52;16.33;;;7.18;;
39612;SDS011;25303;48.896;13.342;2024-03-07T19:28:57;21.42;;;9.27;;
39612;SDS011;25303;48.896;13.342;2024-03-07T19:39:00;20.13;;;8.48;;
39612;SDS011;25303;48.896;13.342;2024-03-07T19:49:15;15.35;;;7.10;;
39612;SDS011;25303;48.896;13.342;2024-03-07T19:59:19;17.27;;;7.57;;
39612;SDS011;25303;48.896;13.342;2024-03-07T20:09:23;17.08;;;7.50;;
39612;SDS011;25303;48.896;13.342;2024-03-07T20:19:26;21.52;;;9.23;;
39612;SDS011;25303;48.896;13.342;2024-03-07T20:29:31;21.05;;;9.63;;
39612;SDS011;25303;48.896;13.342;2024-03-07T20:39:34;25.13;;;10.93;;
39612;SDS011;25303;48.896;13.342;2024-03-07T20:49:38;20.50;;;9.00;;
39612;SDS011;25303;48.896;13.342;2024-03-07T20:59:42;23.92;;;10.75;;
39612;SDS011;25303;48.896;13.342;2024-03-07T21:09:46;20.17;;;9.63;;
39612;SDS011;25303;48.896;13.342;2024-03-07T21:19:49;23.25;;;11.48;;
39612;SDS011;25303;48.896;13.342;2024-03-07T21:29:54;26.10;;;11.90;;
39612;SDS011;25303;48.896;13.342;2024-03-07T21:39:57;25.00;;;11.63;;
39612;SDS011;25303;48.896;13.342;2024-03-07T21:50:01;28.17;;;12.93;;
39612;SDS011;25303;48.896;13.342;2024-03-07T22:00:05;30.15;;;12.65;;
39612;SDS011;25303;48.896;13.342;2024-03-07T22:10:14;26.48;;;12.82;;
39612;SDS011;25303;48.896;13.342;2024-03-07T22:20:19;23.75;;;11.02;;
39612;SDS011;25303;48.896;13.342;2024-03-07T22:30:26;26.77;;;12.57;;
39612;SDS011;25303;48.896;13.342;2024-03-07T22:40:29;26.65;;;13.23;;
39612;SDS011;25303;48.896;13.342;2024-03-07T22:50:34;24.35;;;10.90;;
39612;SDS011;25303;48.896;13.342;2024-03-07T23:00:37;25.08;;;10.88;;
39612;SDS011;25303;48.896;13.342;2024-03-07T23:10:47;29.55;;;13.02;;
39612;SDS011;25303;48.896;13.342;2024-03-07T23:20:50;22.52;;;9.93;;
39612;SDS011;25303;48.896;13.342;2024-03-07T23:30:55;22.42;;;10.73;;
39612;SDS011;25303;48.896;13.342;2024-03-07T23:40:58;24.60;;;11.55;;
39612;SDS011;25303;48.896;13.342;2024-03-07T23:51:04;17.05;;;7.55;;
